createdAt,value
2022-08-17T00:00:43.429Z,22.52
2022-08-17T00:03:39.134Z,21.38
2022-08-17T00:06:28.551Z,20.88
2022-08-17T00:09:18.792Z,20.25
2022-08-17T00:12:41.176Z,20.13
2022-08-17T00:15:13.421Z,20.08
2022-08-17T00:17:58.930Z,19.77
2022-08-17T00:20:45.152Z,19.17
2022-08-17T00:23:30.631Z,19.23
2022-08-17T00:26:43.415Z,19.42
2022-08-17T00:29:22.536Z,18.80
2022-08-17T00:33:13.959Z,19.10
2022-08-17T00:35:17.685Z,19.73
2022-08-17T00:38:05.060Z,19.63
2022-08-17T00:41:00.074Z,20.08
2022-08-17T00:43:58.186Z,20.08
2022-08-17T00:46:44.566Z,19.58
2022-08-17T00:49:31.331Z,18.65
2022-08-17T00:52:23.618Z,19.98
2022-08-17T00:55:10.313Z,19.55
2022-08-17T00:58:01.044Z,19.45
2022-08-17T01:00:47.732Z,19.50
2022-08-17T01:03:34.950Z,17.80
2022-08-17T01:06:22.859Z,19.38
2022-08-17T01:09:09.036Z,18.20
2022-08-17T01:11:54.422Z,18.88
2022-08-17T01:14:40.325Z,18.55
2022-08-17T01:17:27.494Z,19.08
2022-08-17T01:20:13.296Z,19.15
2022-08-17T01:23:01.213Z,19.15
2022-08-17T01:25:48.730Z,18.08
2022-08-17T01:28:53.133Z,18.85
2022-08-17T01:31:51.183Z,19.33
2022-08-17T01:34:43.796Z,19.25
2022-08-17T01:37:40.228Z,18.92
2022-08-17T01:40:39.349Z,19.00
2022-08-17T01:43:32.857Z,18.63
2022-08-17T01:46:30.986Z,19.02
2022-08-17T01:49:16.521Z,20.30
2022-08-17T01:52:10.816Z,19.73
2022-08-17T01:54:56.722Z,20.58
2022-08-17T01:57:45.436Z,19.83
2022-08-17T02:00:59.571Z,19.45
2022-08-17T02:03:37.933Z,19.95
2022-08-17T02:06:27.696Z,19.25
2022-08-17T02:09:16.954Z,19.55
2022-08-17T02:12:47.940Z,19.90
2022-08-17T02:15:12.453Z,20.15
2022-08-17T02:17:58.115Z,19.67
2022-08-17T02:20:43.367Z,19.27
2022-08-17T02:23:32.032Z,18.92
2022-08-17T02:26:25.768Z,18.60
2022-08-17T02:29:14.558Z,19.15
2022-08-17T02:32:01.832Z,17.77
2022-08-17T02:34:47.384Z,19.23
2022-08-17T02:37:33.739Z,17.55
2022-08-17T02:40:36.476Z,18.23
2022-08-17T02:43:22.023Z,18.63
2022-08-17T02:46:07.567Z,18.27
2022-08-17T02:48:53.071Z,19.60
2022-08-17T02:51:38.506Z,17.13
2022-08-17T02:54:39.405Z,18.52
2022-08-17T02:57:27.331Z,18.40
2022-08-17T03:00:21.275Z,18.55
2022-08-17T03:03:07.092Z,18.40
2022-08-17T03:05:53.243Z,17.45
2022-08-17T03:08:38.551Z,17.77
2022-08-17T03:11:23.635Z,17.77
2022-08-17T03:14:09.238Z,17.83
2022-08-17T03:16:54.776Z,16.73
2022-08-17T03:19:43.025Z,16.83
2022-08-17T03:22:36.657Z,16.48
2022-08-17T03:25:37.879Z,17.40
2022-08-17T03:28:25.155Z,17.08
2022-08-17T03:31:10.432Z,16.70
2022-08-17T03:33:56.489Z,17.27
2022-08-17T03:36:42.147Z,17.25
2022-08-17T03:39:27.385Z,17.95
2022-08-17T03:42:32.301Z,20.27
2022-08-17T03:45:42.867Z,20.95
2022-08-17T03:48:47.739Z,19.40
2022-08-17T03:51:51.724Z,19.73
2022-08-17T03:54:56.091Z,18.70
2022-08-17T03:57:41.567Z,19.17
2022-08-17T04:00:27.783Z,18.77
2022-08-17T04:03:14.843Z,18.98
2022-08-17T04:06:02.234Z,18.67
2022-08-17T04:08:47.471Z,19.33
2022-08-17T04:11:33.780Z,18.08
2022-08-17T04:14:19.758Z,17.58
2022-08-17T04:17:05.898Z,16.35
2022-08-17T04:19:51.729Z,18.95
2022-08-17T04:22:37.337Z,18.30
2022-08-17T04:25:23.392Z,18.98
2022-08-17T04:28:15.586Z,18.10
2022-08-17T04:33:47.203Z,18.17
2022-08-17T04:36:32.898Z,19.20
2022-08-17T04:39:18.267Z,18.02
2022-08-17T04:42:16.902Z,18.48
2022-08-17T04:45:04.630Z,18.33
2022-08-17T04:47:49.800Z,18.02
2022-08-17T04:50:37.033Z,17.52
2022-08-17T04:53:22.912Z,17.85
2022-08-17T04:56:11.747Z,20.77
2022-08-17T04:59:05.350Z,19.70
2022-08-17T05:01:52.471Z,19.80
2022-08-17T05:04:41.733Z,19.58
2022-08-17T05:07:31.300Z,19.38
2022-08-17T05:10:17.312Z,20.38
2022-08-17T05:13:12.424Z,18.92
2022-08-17T05:16:00.931Z,19.45
2022-08-17T05:18:46.536Z,20.75
2022-08-17T05:21:32.233Z,20.23
2022-08-17T05:24:42.578Z,21.10
2022-08-17T05:27:23.612Z,21.92
2022-08-17T05:30:09.209Z,20.55
2022-08-17T05:33:01.499Z,21.60
2022-08-17T05:35:49.505Z,20.58
2022-08-17T05:38:35.750Z,23.33
2022-08-17T05:41:21.172Z,22.52
2022-08-17T05:44:06.640Z,22.77
2022-08-17T05:46:53.223Z,22.38
2022-08-17T05:49:38.685Z,23.73
2022-08-17T05:52:47.209Z,24.35
2022-08-17T05:56:09.926Z,25.00
2022-08-17T05:59:35.052Z,28.17
2022-08-17T06:02:48.538Z,27.38
2022-08-17T06:05:40.166Z,26.48
2022-08-17T06:09:26.636Z,27.13
2022-08-17T06:12:34.802Z,24.17
2022-08-17T06:15:38.458Z,24.85
2022-08-17T06:18:28.733Z,25.30
2022-08-17T06:21:18.876Z,26.00
2022-08-17T06:24:42.004Z,25.15
2022-08-17T06:27:53.475Z,25.90
2022-08-17T06:31:03.245Z,28.02
2022-08-17T06:33:50.246Z,28.65
2022-08-17T06:36:48.282Z,30.98
2022-08-17T06:40:04.492Z,31.42
2022-08-17T06:43:32.592Z,32.55
2022-08-17T06:46:29.196Z,34.88
2022-08-17T06:49:28.601Z,36.05
2022-08-17T06:52:46.026Z,38.60
2022-08-17T06:55:45.624Z,37.42
2022-08-17T06:58:33.267Z,39.10
2022-08-17T07:01:24.916Z,41.42
2022-08-17T07:04:21.543Z,40.92
2022-08-17T07:07:28.492Z,43.03
2022-08-17T07:10:14.460Z,43.65
2022-08-17T07:13:14.122Z,45.33
2022-08-17T07:16:11.016Z,45.63
2022-08-17T07:18:58.893Z,47.25
2022-08-17T07:22:09.544Z,47.33
2022-08-17T07:25:02.353Z,47.30
2022-08-17T07:27:51.412Z,48.25
2022-08-17T07:30:47.479Z,45.85
2022-08-17T07:33:36.816Z,48.10
2022-08-17T07:36:29.958Z,45.55
2022-08-17T07:39:26.933Z,45.72
2022-08-17T07:42:12.618Z,44.92
2022-08-17T07:45:20.568Z,44.67
2022-08-17T07:48:19.487Z,45.28
2022-08-17T07:51:40.222Z,44.47
2022-08-17T07:54:42.527Z,42.05
2022-08-17T07:57:34.333Z,42.85
2022-08-17T08:00:30.822Z,42.30
2022-08-17T08:03:26.233Z,42.40
2022-08-17T08:06:22.705Z,44.20
2022-08-17T08:09:08.416Z,47.40
2022-08-17T08:11:53.618Z,47.72
2022-08-17T08:14:39.746Z,49.42
2022-08-17T08:17:45.048Z,48.67
2022-08-17T08:20:53.366Z,43.75
2022-08-17T08:23:47.972Z,47.25
2022-08-17T08:26:53.943Z,45.92
2022-08-17T08:30:04.930Z,48.10
2022-08-17T08:33:17.646Z,46.20
2022-08-17T08:37:13.054Z,45.20
2022-08-17T08:40:34.756Z,40.88
2022-08-17T08:43:36.248Z,43.72
2022-08-17T08:46:24.903Z,42.20
2022-08-17T08:50:01.875Z,42.55
2022-08-17T08:53:42.177Z,42.75
2022-08-17T08:56:33.038Z,41.83
2022-08-17T08:59:45.446Z,42.00
2022-08-17T09:02:52.218Z,41.50
2022-08-17T09:06:00.340Z,41.78
2022-08-17T09:09:13.727Z,39.70
2022-08-17T09:12:30.099Z,36.97
2022-08-17T09:15:27.681Z,36.17
2022-08-17T09:18:59.924Z,34.97
2022-08-17T09:21:54.804Z,34.00
2022-08-17T09:24:46.249Z,33.28
2022-08-17T09:27:38.461Z,36.97
2022-08-17T09:30:25.302Z,33.55
2022-08-17T09:33:14.064Z,31.35
2022-08-17T09:36:21.749Z,28.77
2022-08-17T09:39:20.132Z,30.38
2022-08-17T09:42:14.684Z,28.17
2022-08-17T09:45:50.721Z,28.17
2022-08-17T09:48:56.445Z,28.48
2022-08-17T09:51:44.983Z,28.45
2022-08-17T09:54:39.673Z,29.35
2022-08-17T09:58:01.455Z,28.73
2022-08-17T10:00:57.680Z,30.00
2022-08-17T10:04:02.729Z,28.45
2022-08-17T10:07:02.107Z,29.27
2022-08-17T10:09:56.564Z,26.25
2022-08-17T10:12:47.150Z,25.85
2022-08-17T10:16:09.890Z,23.92
2022-08-17T10:19:24.185Z,22.30
2022-08-17T10:22:57.696Z,21.60
2022-08-17T10:29:16.869Z,19.83
2022-08-17T10:32:09.151Z,19.77
2022-08-17T10:35:25.648Z,20.02
2022-08-17T10:38:16.975Z,21.20
2022-08-17T10:41:40.573Z,22.38
2022-08-17T10:44:44.586Z,22.88
2022-08-17T10:47:56.125Z,18.63
2022-08-17T10:50:42.640Z,17.98
2022-08-17T10:53:40.620Z,19.63
2022-08-17T10:56:41.432Z,19.02
2022-08-17T10:59:36.009Z,18.13
2022-08-17T11:02:27.456Z,19.92
2022-08-17T11:05:43.962Z,19.83
2022-08-17T11:08:58.065Z,19.20
2022-08-17T11:11:55.464Z,19.58
2022-08-17T11:14:41.205Z,20.67
2022-08-17T11:17:30.128Z,20.52
2022-08-17T11:20:57.835Z,17.92
2022-08-17T11:24:18.382Z,18.08
2022-08-17T11:27:18.524Z,18.80
2022-08-17T11:30:44.513Z,16.08
2022-08-17T11:33:34.134Z,16.38
2022-08-17T11:36:34.550Z,15.37
2022-08-17T11:39:44.571Z,16.48
2022-08-17T11:42:47.446Z,15.20
2022-08-17T11:46:02.104Z,13.57
2022-08-17T11:49:31.666Z,12.57
2022-08-17T11:52:47.123Z,15.90
2022-08-17T11:55:39.582Z,14.55
2022-08-17T11:58:34.173Z,15.60
2022-08-17T12:04:19.277Z,16.95
2022-08-17T12:07:17.011Z,17.73
2022-08-17T12:10:04.710Z,15.57
2022-08-17T12:12:53.265Z,16.00
2022-08-17T12:15:48.669Z,15.50
2022-08-17T12:18:37.527Z,14.50
2022-08-17T12:21:37.961Z,16.00
2022-08-17T12:24:47.190Z,15.32
2022-08-17T12:27:46.174Z,16.83
2022-08-17T12:30:50.056Z,17.20
2022-08-17T12:33:43.656Z,16.88
2022-08-17T12:36:30.609Z,17.25
2022-08-17T12:39:24.896Z,17.98
2022-08-17T12:42:23.283Z,17.17
2022-08-17T12:45:23.507Z,15.35
2022-08-17T12:48:13.185Z,17.55
2022-08-17T12:51:01.559Z,16.33
2022-08-17T12:53:54.812Z,15.55
2022-08-17T12:56:40.762Z,14.65
2022-08-17T12:59:30.394Z,14.63
2022-08-17T13:02:52.540Z,15.20
2022-08-17T13:05:41.764Z,13.88
2022-08-17T13:08:32.851Z,13.18
2022-08-17T13:11:24.849Z,14.68
2022-08-17T13:14:10.886Z,13.77
2022-08-17T13:17:01.779Z,13.95
2022-08-17T13:19:50.868Z,15.95
2022-08-17T13:22:36.866Z,14.40
2022-08-17T13:25:23.034Z,13.00
2022-08-17T13:28:18.979Z,13.63
2022-08-17T13:31:39.433Z,13.52
2022-08-17T13:35:12.922Z,14.35
2022-08-17T13:38:12.411Z,13.05
2022-08-17T13:40:58.012Z,14.15
2022-08-17T13:43:48.506Z,14.80
2022-08-17T13:46:33.990Z,15.10
2022-08-17T13:49:21.337Z,15.32
2022-08-17T13:52:13.988Z,14.05
2022-08-17T13:55:07.589Z,13.70
2022-08-17T13:58:07.126Z,13.70
2022-08-17T14:00:53.144Z,12.85
2022-08-17T14:03:38.460Z,11.20
2022-08-17T14:06:53.208Z,11.98
2022-08-17T14:09:46.852Z,10.52
2022-08-17T14:12:34.723Z,9.82
2022-08-17T14:15:24.824Z,8.65
2022-08-17T14:18:49.821Z,8.65
2022-08-17T14:21:38.226Z,7.28
2022-08-17T14:24:30.207Z,6.75
2022-08-17T14:27:17.987Z,7.15
2022-08-17T14:30:06.362Z,6.50
2022-08-17T14:32:52.564Z,6.50
2022-08-17T14:35:38.360Z,6.20
2022-08-17T14:38:23.919Z,5.45
2022-08-17T14:41:09.925Z,6.45
2022-08-17T14:43:55.207Z,6.28
2022-08-17T14:46:41.881Z,6.90
2022-08-17T14:49:31.380Z,5.28
2022-08-17T14:52:22.046Z,6.15
2022-08-17T14:55:08.648Z,5.85
2022-08-17T14:57:53.876Z,6.15
2022-08-17T15:00:41.298Z,5.63
2022-08-17T15:03:26.969Z,4.82
2022-08-17T15:06:14.631Z,9.93
2022-08-17T15:09:02.310Z,13.32
2022-08-17T15:11:47.931Z,14.15
2022-08-17T15:14:35.444Z,14.85
2022-08-17T15:17:21.060Z,14.40
2022-08-17T15:20:14.212Z,14.73
2022-08-17T15:23:00.601Z,14.35
2022-08-17T15:25:47.784Z,14.38
2022-08-17T15:28:33.070Z,14.20
2022-08-17T15:31:18.576Z,14.18
2022-08-17T15:34:17.810Z,13.35
2022-08-17T15:37:03.685Z,13.82
2022-08-17T15:39:49.516Z,12.00
2022-08-17T15:42:35.673Z,10.35
2022-08-17T15:45:24.845Z,8.70
2022-08-17T15:48:10.778Z,9.32
2022-08-17T15:50:56.122Z,8.48
2022-08-17T15:53:43.912Z,8.68
2022-08-17T15:56:31.275Z,10.27
2022-08-17T15:59:16.658Z,9.75
2022-08-17T16:03:13.614Z,9.57
2022-08-17T16:05:21.964Z,8.50
2022-08-17T16:08:11.134Z,7.40
2022-08-17T16:10:59.524Z,6.53
2022-08-17T16:13:47.388Z,6.35
2022-08-17T16:16:40.316Z,6.28
2022-08-17T16:19:25.614Z,5.80
2022-08-17T16:22:12.618Z,5.00
2022-08-17T16:24:59.043Z,4.75
2022-08-17T16:27:46.040Z,4.88
2022-08-17T16:30:31.957Z,4.35
2022-08-17T16:33:18.584Z,4.18
2022-08-17T16:36:04.268Z,4.57
2022-08-17T16:38:49.745Z,4.25
2022-08-17T16:41:45.033Z,4.25
2022-08-17T16:44:32.091Z,5.18
2022-08-17T16:47:19.386Z,5.05
2022-08-17T16:50:07.049Z,5.50
2022-08-17T16:52:52.671Z,6.20
2022-08-17T16:55:38.836Z,5.93
2022-08-17T16:58:24.427Z,5.80
2022-08-17T17:01:10.063Z,6.60
2022-08-17T17:03:59.599Z,5.30
2022-08-17T17:07:06.252Z,5.32
2022-08-17T17:09:55.359Z,5.35
2022-08-17T17:13:03.015Z,5.90
2022-08-17T17:16:11.509Z,6.03
2022-08-17T17:19:16.222Z,6.55
2022-08-17T17:22:26.760Z,5.93
2022-08-17T17:25:27.855Z,6.28
2022-08-17T17:28:24.965Z,6.22
2022-08-17T17:31:17.975Z,8.25
2022-08-17T17:34:07.738Z,7.45
2022-08-17T17:36:58.059Z,7.82
2022-08-17T17:39:51.960Z,7.40
2022-08-17T17:42:40.520Z,8.13
2022-08-17T17:45:32.398Z,8.13
2022-08-17T17:48:18.128Z,8.73
2022-08-17T17:52:05.296Z,8.40
2022-08-17T17:54:58.218Z,8.73
2022-08-17T17:57:55.758Z,7.25
2022-08-17T18:00:44.541Z,8.05
2022-08-17T18:04:01.523Z,8.80
2022-08-17T18:07:10.114Z,8.93
2022-08-17T18:10:02.795Z,9.48
2022-08-17T18:13:17.751Z,9.15
2022-08-17T18:16:06.098Z,8.98
2022-08-17T18:18:52.604Z,8.93
2022-08-17T18:21:46.442Z,9.77
2022-08-17T18:24:37.980Z,9.68
2022-08-17T18:27:34.551Z,9.10
2022-08-17T18:30:20.034Z,8.90
2022-08-17T18:33:22.293Z,9.77
2022-08-17T18:36:08.838Z,9.05
2022-08-17T18:39:10.238Z,9.32
2022-08-17T18:41:58.502Z,9.45
2022-08-17T18:44:44.989Z,10.00
2022-08-17T18:47:30.718Z,9.73
2022-08-17T18:50:27.316Z,10.73
2022-08-17T18:53:40.838Z,10.52
2022-08-17T18:59:24.227Z,11.80
2022-08-17T19:02:29.713Z,10.80
2022-08-17T19:05:43.196Z,12.82
2022-08-17T19:08:28.559Z,12.10
2022-08-17T19:11:20.770Z,11.68
2022-08-17T19:14:13.609Z,12.67
2022-08-17T19:17:10.120Z,11.05
2022-08-17T19:20:22.665Z,12.25
2022-08-17T19:23:26.368Z,12.07
2022-08-17T19:26:51.266Z,11.50
2022-08-17T19:29:43.066Z,11.75
2022-08-17T19:32:34.670Z,10.45
2022-08-17T19:35:23.596Z,10.35
2022-08-17T19:38:20.872Z,10.40
2022-08-17T19:41:13.409Z,10.07
2022-08-17T19:44:37.812Z,9.95
2022-08-17T19:47:54.789Z,9.98
2022-08-17T19:51:03.276Z,9.25
2022-08-17T19:54:06.355Z,9.40
2022-08-17T19:57:01.713Z,10.57
2022-08-17T20:00:02.785Z,9.88
2022-08-17T20:03:05.909Z,10.20
2022-08-17T20:06:13.851Z,9.50
2022-08-17T20:09:15.178Z,9.60
2022-08-17T20:12:11.699Z,9.35
2022-08-17T20:15:09.866Z,10.10
2022-08-17T20:17:59.963Z,10.43
2022-08-17T20:20:58.852Z,9.77
2022-08-17T20:23:57.232Z,10.48
2022-08-17T20:26:59.331Z,9.32
2022-08-17T20:29:59.138Z,9.85
2022-08-17T20:32:57.126Z,10.80
2022-08-17T20:36:11.727Z,10.35
2022-08-17T20:38:59.197Z,10.93
2022-08-17T20:42:06.109Z,12.00
2022-08-17T20:44:59.467Z,10.65
2022-08-17T20:48:07.736Z,10.88
2022-08-17T20:51:00.679Z,10.80
2022-08-17T20:53:54.810Z,11.43
2022-08-17T20:56:44.420Z,12.13
2022-08-17T20:59:51.153Z,11.93
2022-08-17T21:02:37.490Z,12.27
2022-08-17T21:05:59.889Z,11.60
2022-08-17T21:08:58.668Z,14.02
2022-08-17T21:12:04.963Z,12.63
2022-08-17T21:15:03.704Z,13.02
2022-08-17T21:17:59.088Z,15.50
2022-08-17T21:21:20.280Z,15.90
2022-08-17T21:24:32.653Z,14.77
2022-08-17T21:27:30.233Z,15.25
2022-08-17T21:30:29.096Z,14.55
2022-08-17T21:33:18.540Z,15.07
2022-08-17T21:36:12.027Z,15.50
2022-08-17T21:39:08.678Z,13.15
2022-08-17T21:41:57.312Z,11.98
2022-08-17T21:44:50.378Z,12.70
2022-08-17T21:47:43.511Z,12.88
2022-08-17T21:53:30.657Z,13.85
2022-08-17T21:56:46.602Z,12.32
2022-08-17T21:59:44.220Z,12.13
2022-08-17T22:02:36.457Z,12.32
2022-08-17T22:05:42.631Z,11.13
2022-08-17T22:08:28.483Z,11.60
2022-08-17T22:11:14.599Z,12.20
2022-08-17T22:14:05.933Z,11.43
2022-08-17T22:17:15.971Z,13.70
2022-08-17T22:20:14.635Z,12.05
2022-08-17T22:23:18.634Z,11.95
2022-08-17T22:26:09.667Z,12.45
2022-08-17T22:28:59.044Z,11.50
2022-08-17T22:31:56.322Z,12.98
2022-08-17T22:34:41.595Z,12.32
2022-08-17T22:37:29.156Z,12.02
2022-08-17T22:40:26.664Z,12.48
2022-08-17T22:43:13.442Z,13.07
2022-08-17T22:46:00.275Z,11.50
2022-08-17T22:48:52.494Z,12.60
2022-08-17T22:51:42.831Z,12.45
2022-08-17T22:54:48.045Z,13.68
2022-08-17T22:57:54.651Z,11.63
2022-08-17T23:00:46.479Z,12.35
2022-08-17T23:03:31.771Z,11.57
2022-08-17T23:06:17.415Z,13.10
2022-08-17T23:09:05.864Z,12.43
2022-08-17T23:11:58.939Z,12.80
2022-08-17T23:17:37.118Z,11.88
2022-08-17T23:20:23.241Z,11.43
2022-08-17T23:23:10.138Z,12.23
2022-08-17T23:25:55.799Z,10.65
2022-08-17T23:28:43.699Z,11.05
2022-08-17T23:31:32.959Z,10.70
2022-08-17T23:34:19.141Z,10.88
2022-08-17T23:37:05.272Z,10.70
2022-08-17T23:39:50.764Z,9.95
2022-08-17T23:42:39.848Z,10.48
2022-08-17T23:45:28.803Z,9.13
2022-08-17T23:48:14.298Z,9.90
2022-08-17T23:51:20.939Z,9.63
2022-08-17T23:54:15.231Z,9.67
2022-08-17T23:57:04.867Z,9.50
2022-08-17T23:59:50.548Z,10.65
